Palm Cove, Queensland

8:55 PM AEST on February 08, 2016 (GMT +1000)
Jmds,Kewarra Beach 4879 | | Change Station
CLOSE
Current Station
Personal Weather Station
Location: Cairns, QLD
Elevation: 30 ft
Nearby Weather Stations

Elev 30 ft 16.79 °S, 145.68 °E | Updated 2 seconds ago

Scattered Clouds
Scattered Clouds
84.7 °F
Feels Like 98 °F
N
0.0
Wind Variable Wind from North
Gusts 0.0 mph

Today
High -- | Low -- °F
--% Chance of Precip.
Yesterday
High -- | Low -- °F
Precip. -- in
Pressure 29.77 in
Visibility 6.2 miles
Clouds Few 2000 ft
Scattered Clouds 3000 ft
Heat Index 98 °F
Dew Point 80 °F
Humidity 85%
Rainfall 0.00 in
Snow Depth Not available.
6:08 AM 6:53 PM
Waning Crescent, 0% visible
METAR YBCS 081030Z 17007KT 9999 FEW020 SCT030 29/26 Q1008 NOSIG
Pressure 29.77 in
Visibility 6.2 miles
Clouds Few 2000 ft
Scattered Clouds 3000 ft
Heat Index 98 °F
Dew Point 80 °F
Humidity 85%
Rainfall 0.00 in
Snow Depth Not available.
6:08 AM 6:53 PM
Waning Crescent, 0% visible
METAR YBCS 081030Z 17007KT 9999 FEW020 SCT030 29/26 Q1008 NOSIG

10-Day Weather Forecast

Almanac

Astronomy

Feb. 08, 2016 Rise Set
Actual Time
Civil Twilight
Nautical Twilight
Astronomical Twilight
Moon
Length of Visible Light
Length of Day
Tomorrow will be .
, % of the Moon is Illuminated

Today's Extremes

Country Highs Country Lows

Community

WunderPhotos

Upload Photos

1,891,420 photos uploaded!

WunderBlog® & News

Nearby

Air Quality

  Air Quality AQ Index Pollutant
Not available.

Snow Depth

Station Depth Elevation

Earthquake Activity

City Distance Mag. Time & Date
Minimum magnitude displayed is 2.5.

Coastal Water Temperatures

Place Temperature

Stations

Nearby Weather Stations

Station Location Temp. Windchill Dew Point Humidity Wind Precip. Elev Updated Type